Airfield :
LOGIN :

Register | Disclaimer

   EN    FR    IT 

 










Legend :    VFR   Marginal VFR   IFR   Intensive IFR   Very Intensive IFR
Visi :
Ceiling :
>= 8 km
>= 3000ft
5 to 8 km
1000 to 3000 ft
1500m to 5 km
500 to 1000 ft
800 to 1500m
200 to 500 ft
< 800m
< 200 ft
Symbols :   Thunderstorms  Fog  Heavy snow  Heavy precipitations  Wind > 20 kt
SIGMETs :     Misc.  Thunderstorms  Icing  Turbulence  Mountain Waves  Volcanic Ashes







- Airport Elevation : 461 ft
- IATA code : WIE


ETOU - Wiesbaden Army

CURRENT METAR :
  • 240156Z AUTO 35003KT 9999 CLR 06/03 A3032 RMK AO2 SLP271 T00580030 $

EXPIRED METARs :
  • 240056Z AUTO 00000KT 9999 CLR 06/03 A3033 RMK AO2 SLP274 T00590029 $
  • 232256Z AUTO 00000KT 9999 CLR 07/03 A3036 RMK AO2 SLP285 T00730028 401630020 $

TAF TAF ETOU
Valid from the 23 at 12:00 until the 24 at 18:00 UTC


231203Z 2312/2418 35009KT 9999 FEW040 QNH3030INS
BECMG 2318/2319 34009KT 9999 BKN035 QNH3024INS TX19/2314Z TN01/2404Z LAST NO AMDS AFT 2312 NEXT 2412
No reported NOTAMs for that airfield.



MET'MAP, your aeronautical weather chart ! - Copyright ORBIFLY December 2007 - Disclaimer

ORBIFLY MET'MAP TEAM :

Programming & Development : Alexandra Zaïnal
Concept & Development : Baudouin d'Aumeries
Co-Development & Prog : Marc-Olivier Méhu
Technical & hardware support : Manuel Goepfert

Contact : metmap@orbifly.com




SOURCES & CREDITS :

   NOAA